Fort Lauderdale, FL

12:01 PM EDT on August 29, 2015 (GMT -0400)
APRSWXNET | | Change Station
CLOSE
Current Station
Personal Weather Station
Location: Fort Lauderdale, FL
Elevation: 6 ft
Nearby Weather Stations

Elev 6 ft 26.11 °N, 80.12 °W | Updated 24 minutes ago

Mostly Cloudy
Mostly Cloudy
88 °F
Feels Like 106 °F
N
0
Wind Variable Wind from East
Gusts 6.0 mph

Today
High -- | Low -- °F
--% Chance of Precip.
Yesterday
High -- | Low -- °F
Precip. -- in
6:59 AM 7:43 PM
Full, 100% visible
Pressure 30.03 in
Visibility 10.0 miles
Clouds Few 2200 ft
Scattered Clouds 3600 ft
Mostly Cloudy 25000 ft
Heat Index 106 °F
Dew Point 81 °F
Humidity 79%
Rainfall in
Snow Depth Not available.
UV 7 out of 12
Pollen 4.60 out of 12
Air Quality Not available.
Flu Activity Not available.
METAR KFLL 291553Z 09014KT 10SM FEW022 SCT036 BKN250 32/26 A3003 RMK AO2 SLP169 T03170261
Pressure 30.03 in
Visibility 10.0 miles
Clouds Few 2200 ft
Scattered Clouds 3600 ft
Mostly Cloudy 25000 ft
Heat Index 106 °F
Dew Point 81 °F
Humidity 79%
Rainfall in
Snow Depth Not available.
UV 7 out of 12
Pollen 4.60 out of 12
Air Quality Not available.
Flu Activity Not available.
METAR KFLL 291553Z 09014KT 10SM FEW022 SCT036 BKN250 32/26 A3003 RMK AO2 SLP169 T03170261

10-Day Weather Forecast

×

Almanac

Astronomy

Aug. 29, 2015 Rise Set
Actual Time
Civil Twilight
Nautical Twilight
Astronomical Twilight
Moon
Length of Visible Light
Length of Day
Tomorrow will be .
, % of the Moon is Illuminated

Today's Extremes

State Highs State Lows

Community

WunderPhotos

Upload Photos

1,850,709 photos uploaded!

WunderBlogs® & News

Nearby

Air Quality

  Air Quality AQ Index Pollutant
Not available.

Snow Depth

Station Depth Elevation

Earthquake Activity

City Distance Mag. Time & Date
Minimum magnitude displayed is 2.5.

Coastal Water Temperatures

Place Temperature

Stations

Nearby Weather Stations

Station Location Temp. Windchill Dew Point Humidity Wind Precip. Elev Updated Type